Time;durP1;ratioP1;P1;durP2;ratioP2;P2;SDS_P1;SDS_P2;PMS_P1;PMS_P2;Temp;Humidity;BMP_temperature;BMP_pressure;BME280_temperature;BME280_humidity;BME280_pressure;Samples;Min_cycle;Max_cycle;Signal;HPM_P1;HPM_P2
2023/02/22 00:01:49;;;;;;;;;;;;;;;4.72;74.22;98741.25;1692549;85;20223;-85
2023/02/22 00:04:52;;;;;;;;;;;;;;;4.78;74.10;98761.37;1691229;84;20206;-78
2023/02/22 00:07:57;;;;;;;;;;;;;;;4.72;74.03;98757.51;1691059;85;20205;-85
2023/02/22 00:11:01;;;;;;;;;;;;;;;4.75;73.74;98758.52;1692589;85;20653;-79
2023/02/22 00:14:05;;;;;;;;;;;;;;;4.72;73.01;98762.92;1692541;85;20668;-86
2023/02/22 00:17:12;;;;;;;;;;;;;;;4.67;73.07;98755.84;1692642;85;20194;-80
2023/02/22 00:20:19;;;;;;;;;;;;;;;4.70;73.16;98756.82;1692527;84;20585;-85
2023/02/22 00:23:25;;;;;;;;;;;;;;;4.57;73.64;98744.38;1692580;85;20197;-86
2023/02/22 00:26:29;;;;;;;;;;;;;;;4.65;73.72;98774.63;1692624;85;20198;-83
2023/02/22 00:29:35;;;;;;;;;;;;;;;4.62;73.44;98773.13;1692539;85;20201;-79
2023/02/22 00:32:39;;;;;;;;;;;;;;;4.58;73.38;98775.34;1691215;85;20189;-79
2023/02/22 00:35:44;;;;;;;;;;;;;;;4.63;73.07;98777.52;1692445;84;20197;-79
2023/02/22 00:38:50;;;;;;;;;;;;;;;4.57;73.25;98789.06;1692024;85;20218;-86
2023/02/22 00:41:54;;;;;;;;;;;;;;;4.61;73.26;98779.06;1692548;85;20197;-78
2023/02/22 00:44:59;;;;;;;;;;;;;;;4.62;73.20;98785.32;1692494;85;20201;-79
2023/02/22 00:48:04;;;;;;;;;;;;;;;4.46;73.74;98796.19;1692543;85;20177;-86
2023/02/22 00:51:08;;;;;;;;;;;;;;;4.49;73.67;98814.30;1692497;85;20197;-86
2023/02/22 00:54:06;;;;;;;;;;;;;;;4.39;73.92;98816.36;1692514;85;20242;-86
2023/02/22 00:56:57;;;;;;;;;;;;;;;4.33;74.18;98815.20;1692679;85;20190;-79
2023/02/22 00:59:43;;;;;;;;;;;;;;;4.16;74.85;98816.23;1692582;85;20581;-79
2023/02/22 01:02:35;;;;;;;;;;;;;;;4.06;75.19;98818.28;1692582;85;20597;-79
2023/02/22 01:05:38;;;;;;;;;;;;;;;3.85;76.34;98816.08;1691297;84;20182;-79
2023/02/22 01:08:43;;;;;;;;;;;;;;;3.74;76.88;98817.79;1692079;85;20198;-86
2023/02/22 01:11:46;;;;;;;;;;;;;;;3.68;77.56;98822.02;1692623;85;20222;-86
2023/02/22 01:14:50;;;;;;;;;;;;;;;3.77;77.50;98825.06;1692480;85;20214;-87
2023/02/22 01:17:53;;;;;;;;;;;;;;;3.78;77.92;98828.10;1692574;85;20685;-85
2023/02/22 01:20:57;;;;;;;;;;;;;;;3.87;78.20;98829.46;1692486;84;20198;-86
2023/02/22 01:24:03;;;;;;;;;;;;;;;3.95;78.16;98811.37;1692509;85;20197;-86
2023/02/22 01:27:09;;;;;;;;;;;;;;;3.98;78.19;98829.11;1692705;85;20198;-79
2023/02/22 01:30:14;;;;;;;;;;;;;;;4.00;78.20;98826.58;1692722;85;20193;-86
2023/02/22 01:33:19;;;;;;;;;;;;;;;4.00;78.40;98820.30;1692799;85;20193;-78
2023/02/22 01:36:24;;;;;;;;;;;;;;;3.94;79.63;98838.57;1691519;84;20205;-79
2023/02/22 01:39:22;;;;;;;;;;;;;;;4.02;80.33;98827.75;1691852;85;20221;-80
2023/02/22 01:42:26;;;;;;;;;;;;;;;4.09;80.28;98840.44;1695791;85;20198;-77
2023/02/22 01:45:42;;;;;;;;;;;;;;;4.07;80.80;98847.03;1696271;85;20185;-86
2023/02/22 01:48:54;;;;;;;;;;;;;;;4.13;80.70;98845.49;1695519;82;20146;-86
2023/02/22 01:51:59;;;;;;;;;;;;;;;4.20;80.51;98851.42;1695515;82;20189;-84
2023/02/22 01:55:04;;;;;;;;;;;;;;;4.21;80.67;98863.92;1692380;84;20562;-78
2023/02/22 01:58:10;;;;;;;;;;;;;;;4.15;81.07;98874.60;1690809;85;20616;-86
2023/02/22 02:01:22;;;;;;;;;;;;;;;4.27;80.99;98890.30;1860217;76;20568;-79
2023/02/22 02:04:28;;;;;;;;;;;;;;;4.24;80.94;98901.48;1801198;79;20586;-79
2023/02/22 02:07:34;;;;;;;;;;;;;;;4.28;81.20;98909.61;1788113;80;20193;-87
2023/02/22 02:10:40;;;;;;;;;;;;;;;4.28;81.55;98901.97;1788282;80;20168;-80
2023/02/22 02:13:43;;;;;;;;;;;;;;;4.18;82.10;98922.44;1788279;79;20193;-80
2023/02/22 02:16:55;;;;;;;;;;;;;;;4.14;82.05;98921.12;1788361;80;20208;-80
2023/02/22 02:20:10;;;;;;;;;;;;;;;4.16;82.19;98937.17;1786736;79;20600;-87
2023/02/22 02:23:20;;;;;;;;;;;;;;;4.16;81.93;98968.30;1786435;79;20243;-79
2023/02/22 02:26:38;;;;;;;;;;;;;;;3.83;96.53;98944.75;1786572;80;20185;-85
2023/02/22 02:30:01;;;;;;;;;;;;;;;3.49;87.01;98944.00;1787823;79;20185;-79
2023/02/22 02:33:24;;;;;;;;;;;;;;;3.47;86.61;98960.88;1788245;79;20612;-84
2023/02/22 02:36:21;;;;;;;;;;;;;;;3.34;86.51;98960.00;1788405;80;20212;-80
2023/02/22 02:39:13;;;;;;;;;;;;;;;3.31;86.19;98969.78;1788639;79;20208;-85
2023/02/22 02:42:05;;;;;;;;;;;;;;;3.42;85.29;98976.73;1788726;80;20184;-82
2023/02/22 02:45:19;;;;;;;;;;;;;;;3.47;84.80;98969.83;1787491;79;20196;-85
2023/02/22 02:48:24;;;;;;;;;;;;;;;3.44;84.63;98982.34;1793243;79;20185;-80
2023/02/22 02:51:31;;;;;;;;;;;;;;;3.57;83.84;98992.16;1788676;80;20172;-80
2023/02/22 02:54:35;;;;;;;;;;;;;;;3.50;84.26;98994.35;1788657;79;20172;-85
2023/02/22 02:57:40;;;;;;;;;;;;;;;3.57;83.83;99003.48;1788691;80;20595;-85
2023/02/22 03:00:46;;;;;;;;;;;;;;;3.46;84.45;99010.55;1782136;80;20190;-79
2023/02/22 03:04:04;;;;;;;;;;;;;;;3.50;84.83;99014.62;1775111;79;20621;-85
2023/02/22 03:07:27;;;;;;;;;;;;;;;3.48;84.93;99022.03;1775183;81;20189;-79
2023/02/22 03:10:37;;;;;;;;;;;;;;;3.44;84.78;99029.64;1775121;81;20213;-83
2023/02/22 03:13:48;;;;;;;;;;;;;;;3.51;84.72;99034.73;1774555;79;20173;-84
2023/02/22 03:17:05;;;;;;;;;;;;;;;3.53;84.55;99045.41;1774504;81;20604;-79
2023/02/22 03:20:19;;;;;;;;;;;;;;;3.57;83.95;99050.80;1774569;79;20197;-84
2023/02/22 03:23:34;;;;;;;;;;;;;;;3.71;82.87;99056.95;1774650;79;20216;-78
2023/02/22 03:26:51;;;;;;;;;;;;;;;3.66;82.38;99072.81;1774615;81;20186;-79
2023/02/22 03:29:59;;;;;;;;;;;;;;;3.54;82.39;99075.48;1774588;79;20170;-79
2023/02/22 03:33:08;;;;;;;;;;;;;;;3.56;81.87;99105.89;1774625;81;20628;-79
2023/02/22 03:36:20;;;;;;;;;;;;;;;3.61;81.55;99088.68;1774769;81;20185;-83
2023/02/22 03:39:29;;;;;;;;;;;;;;;3.52;81.49;99097.25;1774637;79;20181;-79
2023/02/22 03:42:36;;;;;;;;;;;;;;;3.58;81.11;99093.92;1774606;81;20225;-80
2023/02/22 03:45:42;;;;;;;;;;;;;;;3.49;81.03;99112.97;1774638;81;20213;-84
2023/02/22 03:48:58;;;;;;;;;;;;;;;3.43;80.95;99123.89;1774528;79;20224;-83
2023/02/22 03:52:02;;;;;;;;;;;;;;;3.56;80.48;99128.88;1774621;81;20197;-80
2023/02/22 03:55:09;;;;;;;;;;;;;;;3.58;80.72;99136.34;1774500;79;20241;-79
2023/02/22 03:58:16;;;;;;;;;;;;;;;3.57;80.47;99155.75;1774528;79;20169;-84
2023/02/22 04:01:22;;;;;;;;;;;;;;;3.49;78.18;99165.69;1777623;80;20189;-79
2023/02/22 04:04:29;;;;;;;;;;;;;;;3.45;77.44;99167.86;1788276;79;20208;-84
2023/02/22 04:07:33;;;;;;;;;;;;;;;3.42;78.00;99164.61;1788329;80;20188;-80
2023/02/22 04:10:38;;;;;;;;;;;;;;;3.52;77.85;99159.44;1788267;80;20188;-85
2023/02/22 04:13:44;;;;;;;;;;;;;;;3.51;78.01;99183.43;1788304;79;20192;-78
2023/02/22 04:16:41;;;;;;;;;;;;;;;3.51;77.97;99189.34;1788324;80;20576;-85
2023/02/22 04:19:45;;;;;;;;;;;;;;;3.46;77.83;99207.90;1788487;79;20193;-78
2023/02/22 04:22:51;;;;;;;;;;;;;;;3.38;77.12;99205.97;1788182;80;20601;-79
2023/02/22 04:25:53;;;;;;;;;;;;;;;3.30;77.12;99205.93;1788440;80;20192;-78
2023/02/22 04:28:58;;;;;;;;;;;;;;;3.18;77.14;99222.87;1788272;79;20204;-85
2023/02/22 04:32:03;;;;;;;;;;;;;;;3.07;77.17;99223.13;1787359;80;20608;-85
2023/02/22 04:35:06;;;;;;;;;;;;;;;3.05;77.39;99233.22;1788304;79;20212;-78
2023/02/22 04:38:10;;;;;;;;;;;;;;;3.13;77.27;99248.16;1788323;79;20191;-86
2023/02/22 04:41:16;;;;;;;;;;;;;;;3.13;76.56;99250.88;1786476;80;20192;-79
2023/02/22 04:44:22;;;;;;;;;;;;;;;3.17;76.05;99251.42;1786360;79;20197;-79
2023/02/22 04:47:20;;;;;;;;;;;;;;;3.14;76.12;99253.06;1787278;80;20189;-87
2023/02/22 04:50:25;;;;;;;;;;;;;;;2.94;76.84;99264.53;1786536;79;20576;-86
2023/02/22 04:53:30;;;;;;;;;;;;;;;3.00;76.62;99272.02;1787902;79;20606;-79
2023/02/22 04:56:35;;;;;;;;;;;;;;;3.06;76.31;99281.72;1788317;80;20189;-86
2023/02/22 04:59:40;;;;;;;;;;;;;;;3.09;75.90;99294.05;1788354;79;20173;-86
2023/02/22 05:02:45;;;;;;;;;;;;;;;3.06;75.67;99297.09;1786631;80;20197;-87
2023/02/22 05:05:50;;;;;;;;;;;;;;;3.14;75.53;99305.25;1788335;80;20208;-80
2023/02/22 05:08:54;;;;;;;;;;;;;;;3.15;75.44;99302.05;1788301;79;20612;-79
2023/02/22 05:11:58;;;;;;;;;;;;;;;3.26;74.69;99312.14;1788333;80;20228;-86
2023/02/22 05:15:03;;;;;;;;;;;;;;;3.23;74.37;99331.36;1788528;79;20572;-80
2023/02/22 05:18:08;;;;;;;;;;;;;;;3.18;74.37;99340.94;1786933;79;20173;-87
2023/02/22 05:21:12;;;;;;;;;;;;;;;3.10;74.28;99348.44;1788078;80;20200;-79
2023/02/22 05:24:17;;;;;;;;;;;;;;;3.05;74.71;99344.84;1787384;79;20189;-81
2023/02/22 05:27:21;;;;;;;;;;;;;;;3.09;74.46;99358.91;1788081;80;20185;-79
2023/02/22 05:30:31;;;;;;;;;;;;;;;3.05;74.16;99364.26;1786549;79;20200;-79
2023/02/22 05:33:34;;;;;;;;;;;;;;;2.95;74.38;99372.42;1785927;79;20584;-86
2023/02/22 05:36:39;;;;;;;;;;;;;;;3.10;73.94;99374.11;1784894;80;20209;-86
2023/02/22 05:39:37;;;;;;;;;;;;;;;3.22;73.94;99383.72;1785871;79;20188;-86
2023/02/22 05:42:28;;;;;;;;;;;;;;;2.98;74.66;99389.69;1786958;80;20592;-80
2023/02/22 05:45:35;;;;;;;;;;;;;;;2.99;74.55;99390.53;1778961;80;20179;-78
2023/02/22 05:48:33;;;;;;;;;;;;;;;3.03;74.66;99398.70;1785648;80;20596;-79
2023/02/22 05:51:31;;;;;;;;;;;;;;;3.01;74.31;99408.78;1786684;80;20204;-79
2023/02/22 05:54:25;;;;;;;;;;;;;;;3.07;73.75;99421.72;1787185;79;20177;-79
2023/02/22 05:57:10;;;;;;;;;;;;;;;3.06;73.31;99423.57;1788199;80;20580;-87
2023/02/22 06:00:10;;;;;;;;;;;;;;;3.08;73.12;99419.36;1780668;79;20185;-86
2023/02/22 06:03:17;;;;;;;;;;;;;;;3.15;72.96;99431.25;1778564;80;20189;-79
2023/02/22 06:06:22;;;;;;;;;;;;;;;3.16;72.86;99441.08;1772775;81;20189;-78
2023/02/22 06:09:26;;;;;;;;;;;;;;;3.15;72.96;99459.63;1771032;79;20209;-86
2023/02/22 06:12:31;;;;;;;;;;;;;;;3.18;72.73;99462.03;1771695;81;20193;-80
2023/02/22 06:15:29;;;;;;;;;;;;;;;3.16;71.81;99474.02;1763429;81;20615;-80
2023/02/22 06:18:20;;;;;;;;;;;;;;;3.15;71.88;99475.84;1764108;79;20288;-80
2023/02/22 06:21:25;;;;;;;;;;;;;;;3.26;70.79;99478.36;1771663;81;20233;-80
2023/02/22 06:24:29;;;;;;;;;;;;;;;3.25;71.09;99484.78;1771156;79;20569;-79
2023/02/22 06:27:35;;;;;;;;;;;;;;;3.21;70.71;99496.03;1772698;81;20240;-79
2023/02/22 06:30:41;;;;;;;;;;;;;;;3.28;68.97;99499.83;1777847;80;20215;-80
2023/02/22 06:33:45;;;;;;;;;;;;;;;3.18;69.07;99505.28;1767984;79;20260;-86
2023/02/22 06:36:49;;;;;;;;;;;;;;;3.40;67.80;99509.45;1769827;81;20205;-85
2023/02/22 06:39:55;;;;;;;;;;;;;;;3.23;67.76;99512.44;1758733;81;20221;-79
2023/02/22 06:43:04;;;;;;;;;;;;;;;3.15;68.29;99522.28;1767679;81;20189;-83
2023/02/22 06:46:09;;;;;;;;;;;;;;;3.18;67.29;99523.34;1764787;81;20189;-87
2023/02/22 06:49:14;;;;;;;;;;;;;;;3.08;67.73;99524.73;1761828;79;20673;-87
2023/02/22 06:52:19;;;;;;;;;;;;;;;3.09;67.14;99541.30;1768770;81;20217;-85
2023/02/22 06:55:27;;;;;;;;;;;;;;;3.25;66.97;99544.74;1765659;79;20644;-79
2023/02/22 06:58:30;;;;;;;;;;;;;;;3.24;66.02;99552.47;1766426;79;20158;-80
2023/02/22 07:01:35;;;;;;;;;;;;;;;3.17;65.75;99554.92;1761157;81;20648;-87
2023/02/22 07:04:39;;;;;;;;;;;;;;;3.26;66.18;99554.55;1776441;79;20204;-87
2023/02/22 07:07:43;;;;;;;;;;;;;;;3.36;65.67;99562.61;1778722;80;20611;-80
2023/02/22 07:10:49;;;;;;;;;;;;;;;3.47;65.54;99565.12;1779386;80;20195;-79
2023/02/22 07:13:55;;;;;;;;;;;;;;;3.41;64.02;99567.08;1779362;80;20216;-85
2023/02/22 07:16:59;;;;;;;;;;;;;;;3.42;64.27;99572.33;1774244;80;20169;-79
2023/02/22 07:20:03;;;;;;;;;;;;;;;3.43;63.92;99572.67;1764965;80;20487;-78
2023/02/22 07:23:07;;;;;;;;;;;;;;;3.46;64.05;99572.38;1783910;79;20188;-86
2023/02/22 07:26:13;;;;;;;;;;;;;;;3.37;63.39;99575.13;1785421;80;20892;-79
2023/02/22 07:29:16;;;;;;;;;;;;;;;3.37;62.75;99593.55;1776911;80;20212;-79
2023/02/22 07:32:21;;;;;;;;;;;;;;;3.22;63.09;99581.52;1782587;80;20583;-87
2023/02/22 07:35:28;;;;;;;;;;;;;;;3.32;62.73;99593.98;1779991;79;20615;-79
2023/02/22 07:38:33;;;;;;;;;;;;;;;3.23;62.86;99601.62;1782831;79;20228;-80
2023/02/22 07:41:37;;;;;;;;;;;;;;;3.27;62.10;99596.28;1723010;82;20191;-79
2023/02/22 07:44:45;;;;;;;;;;;;;;;3.23;61.99;99598.92;1724086;83;20634;-88
2023/02/22 07:47:52;;;;;;;;;;;;;;;3.29;61.71;99606.47;1723890;83;20463;-80
2023/02/22 07:50:56;;;;;;;;;;;;;;;3.30;61.68;99614.08;1722241;83;20190;-79
2023/02/22 07:54:00;;;;;;;;;;;;;;;3.39;61.36;99616.37;1726132;83;20205;-79
2023/02/22 07:57:05;;;;;;;;;;;;;;;3.28;61.81;99622.30;1716601;83;20205;-88
2023/02/22 08:00:13;;;;;;;;;;;;;;;3.30;62.78;99624.38;1722920;83;20225;-87
2023/02/22 08:03:19;;;;;;;;;;;;;;;3.35;63.45;99630.70;1724831;83;20187;-80
2023/02/22 08:06:24;;;;;;;;;;;;;;;3.37;63.38;99631.39;1718700;83;20261;-80
2023/02/22 08:09:29;;;;;;;;;;;;;;;3.48;63.29;99635.30;1716784;82;20710;-79
2023/02/22 08:12:35;;;;;;;;;;;;;;;3.65;62.60;99638.20;1706590;83;20192;-87
2023/02/22 08:15:43;;;;;;;;;;;;;;;3.78;62.70;99640.93;1730751;83;20621;-80
2023/02/22 08:18:48;;;;;;;;;;;;;;;3.64;62.31;99646.83;1721570;83;20304;-88
2023/02/22 08:21:52;;;;;;;;;;;;;;;3.77;62.28;99651.41;1722313;83;20259;-87
2023/02/22 08:24:58;;;;;;;;;;;;;;;3.72;62.16;99651.00;1727911;81;20508;-84
2023/02/22 08:28:07;;;;;;;;;;;;;;;3.94;62.22;99650.25;1731471;83;20232;-84
2023/02/22 08:31:12;;;;;;;;;;;;;;;4.00;61.73;99652.34;1724471;83;20476;-77
2023/02/22 08:34:17;;;;;;;;;;;;;;;4.01;61.56;99661.69;1726102;81;20668;-86
2023/02/22 08:37:21;;;;;;;;;;;;;;;4.07;61.69;99669.70;1729438;83;20205;-78
2023/02/22 08:40:31;;;;;;;;;;;;;;;4.17;60.59;99664.23;1728495;83;20213;-78
2023/02/22 08:43:30;;;;;;;;;;;;;;;4.09;60.68;99672.63;1724826;83;20233;-87
2023/02/22 08:46:35;;;;;;;;;;;;;;;4.12;59.61;99678.22;1717133;83;20683;-78
2023/02/22 08:49:40;;;;;;;;;;;;;;;4.12;58.47;99672.80;1720342;83;20190;-88
2023/02/22 08:52:45;;;;;;;;;;;;;;;4.03;56.29;99683.17;1728318;82;20185;-79
2023/02/22 08:55:51;;;;;;;;;;;;;;;3.93;54.33;99690.48;1723043;83;20856;-78
2023/02/22 08:58:56;;;;;;;;;;;;;;;3.69;57.65;99704.03;1725077;83;20209;-89
2023/02/22 09:02:01;;;;;;;;;;;;;;;3.55;59.11;99709.91;1725942;83;20623;-88
2023/02/22 09:05:06;;;;;;;;;;;;;;;3.45;59.87;99719.39;1728495;81;20237;-78
2023/02/22 09:08:11;;;;;;;;;;;;;;;3.36;62.36;99717.55;1722967;81;20909;-87
2023/02/22 09:11:17;;;;;;;;;;;;;;;3.21;63.82;99723.06;1716215;83;20222;-79
2023/02/22 09:14:21;;;;;;;;;;;;;;;3.18;65.15;99729.59;1721346;81;20223;-79
2023/02/22 09:17:26;;;;;;;;;;;;;;;3.19;66.80;99721.83;1704259;83;20204;-82
2023/02/22 09:20:31;;;;;;;;;;;;;;;3.15;68.62;99727.66;1715059;83;20186;-87
2023/02/22 09:23:37;;;;;;;;;;;;;;;3.22;68.77;99728.31;1721884;83;20230;-88
2023/02/22 09:26:43;;;;;;;;;;;;;;;3.27;69.04;99733.29;1718487;83;20205;-87
2023/02/22 09:29:49;;;;;;;;;;;;;;;3.43;69.35;99731.34;1725157;81;20372;-87
2023/02/22 09:32:54;;;;;;;;;;;;;;;3.64;69.15;99730.67;1712888;83;20218;-80
2023/02/22 09:35:59;;;;;;;;;;;;;;;3.93;67.96;99731.92;1719533;83;20194;-87
2023/02/22 09:39:04;;;;;;;;;;;;;;;4.21;66.57;99723.33;1714990;81;20224;-86
2023/02/22 09:42:19;;;;;;;;;;;;;;;4.37;65.14;99722.67;1720961;82;20249;-85
2023/02/22 09:45:29;;;;;;;;;;;;;;;4.40;64.50;99724.24;1716871;83;20193;-87
2023/02/22 09:48:33;;;;;;;;;;;;;;;4.47;64.53;99718.55;1722200;83;20220;-85
2023/02/22 09:51:40;;;;;;;;;;;;;;;4.53;60.86;99723.39;1723616;83;20266;-79
2023/02/22 09:54:51;;;;;;;;;;;;;;;4.60;58.79;99716.34;1718821;81;20185;-85
2023/02/22 09:57:55;;;;;;;;;;;;;;;4.53;58.63;99716.11;1719267;83;20182;-79
2023/02/22 10:01:04;;;;;;;;;;;;;;;4.64;57.57;99722.31;1721821;83;20632;-79
2023/02/22 10:04:32;;;;;;;;;;;;;;;4.95;57.75;99717.39;1718468;81;20233;-85
2023/02/22 10:07:41;;;;;;;;;;;;;;;5.06;56.68;99729.34;1722147;83;20217;-80
2023/02/22 10:10:51;;;;;;;;;;;;;;;4.58;56.52;99725.14;1728177;82;20216;-80
2023/02/22 10:14:02;;;;;;;;;;;;;;;4.35;57.59;99732.31;1730828;82;21005;-85
2023/02/22 10:17:18;;;;;;;;;;;;;;;4.41;58.18;99730.84;1735471;82;20205;-79
2023/02/22 10:20:37;;;;;;;;;;;;;;;4.03;59.60;99728.68;1718331;82;20634;-80
2023/02/22 10:23:40;;;;;;;;;;;;;;;4.03;59.83;99743.56;1725253;82;20217;-85
2023/02/22 10:26:36;;;;;;;;;;;;;;;3.92;59.39;99740.20;1725752;82;20202;-86
2023/02/22 10:29:34;;;;;;;;;;;;;;;3.88;59.80;99742.84;1722163;82;20194;-80
2023/02/22 10:32:32;;;;;;;;;;;;;;;3.93;60.08;99740.05;1729899;82;20192;-84
2023/02/22 10:35:23;;;;;;;;;;;;;;;4.00;60.27;99740.30;1702894;82;20583;-85
2023/02/22 10:38:26;;;;;;;;;;;;;;;4.16;59.90;99731.05;1725074;82;20650;-83
2023/02/22 10:41:17;;;;;;;;;;;;;;;4.37;58.27;99745.69;1719687;82;20621;-86
2023/02/22 10:44:07;;;;;;;;;;;;;;;4.42;56.88;99743.88;1730248;82;20626;-80
2023/02/22 10:47:16;;;;;;;;;;;;;;;4.39;55.36;99746.91;1724671;83;20265;-80
2023/02/22 10:50:21;;;;;;;;;;;;;;;4.20;55.26;99750.06;1730353;82;20609;-87
2023/02/22 10:53:25;;;;;;;;;;;;;;;4.13;54.43;99748.94;1729993;82;20258;-81
2023/02/22 10:56:33;;;;;;;;;;;;;;;4.03;53.89;99759.80;1731063;82;20608;-80
2023/02/22 10:59:44;;;;;;;;;;;;;;;3.94;54.07;99759.84;1722548;82;20531;-80
2023/02/22 11:02:50;;;;;;;;;;;;;;;3.93;54.57;99763.05;1733941;82;20198;-80
2023/02/22 11:05:52;;;;;;;;;;;;;;;3.79;54.35;99765.72;1719623;81;20213;-80
2023/02/22 11:08:57;;;;;;;;;;;;;;;3.77;55.31;99770.43;1720217;81;20189;-86
2023/02/22 11:12:17;;;;;;;;;;;;;;;3.74;55.65;99772.06;1713543;83;20215;-80
2023/02/22 11:15:28;;;;;;;;;;;;;;;3.48;56.75;99776.36;1712971;83;20649;-79
2023/02/22 11:18:36;;;;;;;;;;;;;;;3.49;57.39;99780.30;1712877;82;20194;-86
2023/02/22 11:21:41;;;;;;;;;;;;;;;3.55;57.53;99776.16;1723554;83;20226;-85
2023/02/22 11:25:02;;;;;;;;;;;;;;;3.71;59.70;99773.70;1722181;81;20202;-86
2023/02/22 11:28:32;;;;;;;;;;;;;;;3.77;60.71;99782.61;1720623;83;20593;-80
2023/02/22 11:31:36;;;;;;;;;;;;;;;3.91;60.95;99784.50;1712440;83;20610;-86
2023/02/22 11:34:43;;;;;;;;;;;;;;;3.83;61.36;99790.63;1719339;83;20910;-86
2023/02/22 11:37:50;;;;;;;;;;;;;;;3.68;61.44;99802.91;1724070;83;20226;-80
2023/02/22 11:40:56;;;;;;;;;;;;;;;3.62;62.15;99808.38;1717715;83;20202;-81
2023/02/22 11:43:59;;;;;;;;;;;;;;;3.61;62.65;99805.83;1721691;81;20194;-86
2023/02/22 11:47:06;;;;;;;;;;;;;;;3.59;63.39;99815.44;1727991;83;20190;-85
2023/02/22 11:50:16;;;;;;;;;;;;;;;3.53;63.69;99814.67;1725751;83;20218;-85
2023/02/22 11:53:45;;;;;;;;;;;;;;;3.61;64.36;99822.91;1719710;83;20597;-86
2023/02/22 11:56:51;;;;;;;;;;;;;;;3.52;64.53;99818.34;1716856;83;20222;-84
2023/02/22 12:00:23;;;;;;;;;;;;;;;3.56;64.65;99821.13;1722261;81;20497;-86
2023/02/22 12:03:43;;;;;;;;;;;;;;;3.59;64.64;99818.15;1701303;83;20668;-86
2023/02/22 12:06:46;;;;;;;;;;;;;;;3.61;64.83;99821.55;1714912;83;20206;-86
2023/02/22 12:10:28;;;;;;;;;;;;;;;3.66;64.73;99816.56;1729362;83;20226;-80
2023/02/22 12:14:07;;;;;;;;;;;;;;;3.72;65.08;99823.27;1726460;82;20289;-80
2023/02/22 12:17:23;;;;;;;;;;;;;;;3.98;63.50;99820.28;1726263;82;20205;-81
2023/02/22 12:20:31;;;;;;;;;;;;;;;4.18;61.85;99822.94;1726654;81;20209;-81
2023/02/22 12:23:43;;;;;;;;;;;;;;;4.19;61.47;99822.81;1725781;82;20214;-85
2023/02/22 12:26:49;;;;;;;;;;;;;;;4.16;61.05;99829.86;1712048;83;20184;-80
2023/02/22 12:30:00;;;;;;;;;;;;;;;4.14;59.89;99825.58;1710705;82;20253;-86
2023/02/22 12:33:10;;;;;;;;;;;;;;;4.09;60.62;99828.72;1729532;82;20177;-81
2023/02/22 12:36:15;;;;;;;;;;;;;;;3.99;59.93;99826.05;1728729;82;20178;-80
2023/02/22 12:39:49;;;;;;;;;;;;;;;3.96;60.18;99826.35;1729635;81;20193;-80
2023/02/22 12:43:08;;;;;;;;;;;;;;;3.99;60.47;99840.08;1731359;82;20189;-86
2023/02/22 12:46:14;;;;;;;;;;;;;;;3.98;60.71;99839.73;1730080;82;20191;-81
2023/02/22 12:49:33;;;;;;;;;;;;;;;3.99;60.78;99847.69;1720718;82;20191;-86
2023/02/22 12:53:06;;;;;;;;;;;;;;;3.95;60.76;99840.01;1730566;82;20213;-81
2023/02/22 12:56:24;;;;;;;;;;;;;;;3.94;59.35;99851.84;1729830;82;20217;-86
2023/02/22 12:59:40;;;;;;;;;;;;;;;4.00;59.56;99848.07;1730372;81;20218;-85
2023/02/22 13:02:56;;;;;;;;;;;;;;;4.01;58.66;99852.98;1728747;82;20221;-81
2023/02/22 13:06:00;;;;;;;;;;;;;;;4.07;56.69;99846.47;1724926;82;20182;-86
2023/02/22 13:09:25;;;;;;;;;;;;;;;3.97;56.93;99855.62;1719547;82;20229;-81
2023/02/22 13:12:35;;;;;;;;;;;;;;;3.91;56.71;99854.86;1728786;82;20197;-85
2023/02/22 13:15:47;;;;;;;;;;;;;;;3.90;56.31;99861.23;1720590;82;20233;-80
2023/02/22 13:18:58;;;;;;;;;;;;;;;3.67;57.42;99861.56;1731968;82;20177;-80
2023/02/22 13:22:16;;;;;;;;;;;;;;;3.45;57.58;99869.45;1720840;82;20218;-86
2023/02/22 13:25:36;;;;;;;;;;;;;;;3.30;58.62;99870.38;1726606;82;20633;-86
2023/02/22 13:28:43;;;;;;;;;;;;;;;3.38;58.20;99867.45;1726474;81;20229;-81
2023/02/22 13:31:51;;;;;;;;;;;;;;;3.41;58.60;99874.78;1727472;82;20221;-87
2023/02/22 13:35:17;;;;;;;;;;;;;;;3.40;59.24;99875.78;1730020;81;20181;-81
2023/02/22 13:38:37;;;;;;;;;;;;;;;3.43;58.34;99889.00;1725223;81;20690;-86
2023/02/22 13:41:47;;;;;;;;;;;;;;;3.42;57.06;99883.25;1734982;82;20605;-86
2023/02/22 13:45:17;;;;;;;;;;;;;;;3.45;55.86;99901.91;1713079;82;20209;-80
2023/02/22 13:48:58;;;;;;;;;;;;;;;3.42;55.44;99888.66;1726351;82;20189;-80
2023/02/22 13:52:07;;;;;;;;;;;;;;;3.46;55.53;99894.64;1726569;82;20618;-87
2023/02/22 13:55:17;;;;;;;;;;;;;;;3.30;56.02;99891.15;1734657;81;20206;-87
2023/02/22 13:58:21;;;;;;;;;;;;;;;3.39;56.59;99894.83;1707432;83;20196;-80
2023/02/22 14:01:46;;;;;;;;;;;;;;;3.31;56.81;99897.75;1707073;84;20191;-82
2023/02/22 14:04:51;;;;;;;;;;;;;;;3.31;56.45;99909.06;1719246;83;20209;-88
2023/02/22 14:07:56;;;;;;;;;;;;;;;3.30;56.49;99913.62;1727507;82;20621;-88
2023/02/22 14:11:11;;;;;;;;;;;;;;;3.27;57.31;99915.74;1734078;82;20692;-79
2023/02/22 14:14:17;;;;;;;;;;;;;;;3.26;56.86;99916.74;1735943;81;20596;-79
2023/02/22 14:17:23;;;;;;;;;;;;;;;3.02;58.29;99914.41;1736668;82;20240;-79
2023/02/22 14:20:31;;;;;;;;;;;;;;;3.10;58.59;99915.91;1714769;82;20206;-80
2023/02/22 14:23:50;;;;;;;;;;;;;;;3.02;59.13;99924.72;1736685;81;20205;-87
2023/02/22 14:27:08;;;;;;;;;;;;;;;3.02;59.89;99931.98;1736736;82;20233;-88
2023/02/22 14:30:16;;;;;;;;;;;;;;;2.94;61.09;99938.55;1736915;81;20609;-80
2023/02/22 14:33:58;;;;;;;;;;;;;;;2.93;62.59;99945.80;1735567;81;20217;-88
2023/02/22 14:37:07;;;;;;;;;;;;;;;2.97;63.12;99946.39;1737614;82;20201;-81
2023/02/22 14:40:33;;;;;;;;;;;;;;;2.80;63.18;99946.52;1732070;81;20221;-80
2023/02/22 14:43:39;;;;;;;;;;;;;;;2.71;63.43;99948.69;1738349;81;20226;-87
2023/02/22 14:46:43;;;;;;;;;;;;;;;2.63;63.40;99952.05;1714471;83;20561;-87
2023/02/22 14:49:51;;;;;;;;;;;;;;;2.58;62.88;99957.00;1737307;81;20201;-87
2023/02/22 14:53:05;;;;;;;;;;;;;;;2.52;63.20;99952.14;1739836;82;20218;-79
2023/02/22 14:56:13;;;;;;;;;;;;;;;2.57;63.68;99953.94;1738958;82;20178;-88
2023/02/22 14:59:24;;;;;;;;;;;;;;;2.58;64.04;99962.40;1738821;81;20221;-79
2023/02/22 15:02:29;;;;;;;;;;;;;;;2.63;63.13;99962.84;1739644;82;20196;-88
2023/02/22 15:05:37;;;;;;;;;;;;;;;2.24;63.42;99977.46;1738563;83;20212;-88
2023/02/22 15:08:47;;;;;;;;;;;;;;;2.30;62.94;99974.23;1739269;81;20241;-80
2023/02/22 15:11:48;;;;;;;;;;;;;;;2.28;63.05;99972.66;1735125;82;20190;-79
2023/02/22 15:14:53;;;;;;;;;;;;;;;2.26;62.85;99977.35;1731229;81;20214;-87
2023/02/22 15:18:05;;;;;;;;;;;;;;;2.18;63.34;99978.49;1730333;83;20182;-79
2023/02/22 15:21:14;;;;;;;;;;;;;;;2.00;63.59;99984.45;1732261;83;20194;-87
2023/02/22 15:24:21;;;;;;;;;;;;;;;1.92;63.10;99985.58;1761983;78;61978;-83
2023/02/22 15:27:27;;;;;;;;;;;;;;;2.05;62.42;99997.55;1767069;80;20253;-84
2023/02/22 15:30:34;;;;;;;;;;;;;;;2.01;62.59;99998.80;1760780;80;20627;-83
2023/02/22 15:33:39;;;;;;;;;;;;;;;1.82;62.19;100002.67;1783391;80;20377;-84
2023/02/22 15:36:46;;;;;;;;;;;;;;;1.83;62.45;100013.82;1783388;80;20217;-84
2023/02/22 15:39:58;;;;;;;;;;;;;;;1.70;62.51;100018.05;1783803;80;20218;-83
2023/02/22 15:43:01;;;;;;;;;;;;;;;1.81;62.29;100029.28;1785174;80;20376;-83
2023/02/22 15:46:07;;;;;;;;;;;;;;;1.84;60.99;100037.98;1785123;80;20217;-84
2023/02/22 15:49:22;;;;;;;;;;;;;;;1.63;59.29;100043.29;1783493;80;20213;-83
2023/02/22 15:52:30;;;;;;;;;;;;;;;1.65;58.13;100044.04;1784794;80;20233;-83
2023/02/22 15:55:39;;;;;;;;;;;;;;;1.46;57.61;100058.16;1785065;80;20209;-84
2023/02/22 15:58:45;;;;;;;;;;;;;;;1.43;58.26;100053.50;1783447;80;20233;-84
2023/02/22 16:01:51;;;;;;;;;;;;;;;1.27;59.13;100058.80;1783511;80;20221;-83
2023/02/22 16:05:01;;;;;;;;;;;;;;;1.06;59.27;100065.88;1785049;80;20205;-84
2023/02/22 16:08:06;;;;;;;;;;;;;;;1.06;59.73;100071.27;1784549;80;20201;-83
2023/02/22 16:11:19;;;;;;;;;;;;;;;1.18;58.70;100076.19;1785132;80;20722;-83
2023/02/22 16:14:33;;;;;;;;;;;;;;;1.14;58.32;100077.41;1784994;80;20249;-83
2023/02/22 16:17:46;;;;;;;;;;;;;;;1.09;58.25;100080.46;1785034;80;20221;-83
2023/02/22 16:20:53;;;;;;;;;;;;;;;1.13;57.96;100083.28;1783086;80;20241;-85
2023/02/22 16:23:59;;;;;;;;;;;;;;;1.08;57.89;100089.50;1747702;78;20150;-85
2023/02/22 16:27:23;;;;;;;;;;;;;;;0.99;58.22;100092.45;1805092;79;20642;-85